Time;durP1;ratioP1;P1;durP2;ratioP2;P2;SDS_P1;SDS_P2;PMS_P1;PMS_P2;Temp;Humidity;BMP_temperature;BMP_pressure;BME280_temperature;BME280_humidity;BME280_pressure;Samples;Min_cycle;Max_cycle;Signal;HPM_P1;HPM_P2
2023/07/28 00:00:05;;;;;;;;;;;18.00;99.90;;;;;;4973024;28;20384;-67
2023/07/28 00:02:33;;;;;;;;;;;18.00;99.90;;;;;;4972714;28;19955;-68
2023/07/28 00:05:01;;;;;;;;;;;17.90;99.90;;;;;;4981578;28;19921;-68
2023/07/28 00:07:28;;;;;;;;;;;18.00;99.90;;;;;;4985466;28;19921;-68
2023/07/28 00:09:57;;;;;;;;;;;18.00;99.90;;;;;;4973867;28;19933;-70
2023/07/28 00:12:26;;;;;;;;;;;18.00;99.90;;;;;;4965287;28;19922;-68
2023/07/28 00:14:53;;;;;;;;;;;18.00;99.90;;;;;;4972806;28;19977;-68
2023/07/28 00:17:23;;;;;;;;;;;17.90;99.90;;;;;;4972718;28;19922;-68
2023/07/28 00:19:51;;;;;;;;;;;17.90;99.90;;;;;;4972877;28;19926;-68
2023/07/28 00:22:19;;;;;;;;;;;17.90;99.90;;;;;;4972571;28;19922;-69
2023/07/28 00:24:46;;;;;;;;;;;17.90;99.90;;;;;;4972514;28;20357;-68
2023/07/28 00:27:14;;;;;;;;;;;17.70;99.90;;;;;;4972161;28;19922;-68
2023/07/28 00:29:43;;;;;;;;;;;17.70;99.90;;;;;;4972623;28;20441;-67
2023/07/28 00:32:11;;;;;;;;;;;17.70;99.90;;;;;;4972478;28;19925;-67
2023/07/28 00:34:39;;;;;;;;;;;17.70;99.90;;;;;;4985560;28;19925;-67
2023/07/28 00:37:07;;;;;;;;;;;17.80;99.90;;;;;;4974195;28;20313;-67
2023/07/28 00:39:35;;;;;;;;;;;17.80;99.90;;;;;;4972652;28;19922;-68
2023/07/28 00:42:02;;;;;;;;;;;17.70;99.90;;;;;;4972209;28;19922;-68
2023/07/28 00:44:30;;;;;;;;;;;17.70;99.90;;;;;;4972381;28;19922;-68
2023/07/28 00:46:59;;;;;;;;;;;17.70;99.90;;;;;;4972379;28;20013;-68
2023/07/28 00:49:27;;;;;;;;;;;17.70;99.90;;;;;;4964836;28;19922;-67
2023/07/28 00:51:55;;;;;;;;;;;17.80;99.90;;;;;;4972162;28;20385;-68
2023/07/28 00:54:23;;;;;;;;;;;17.90;99.90;;;;;;4971972;28;19922;-68
2023/07/28 00:56:50;;;;;;;;;;;17.90;99.90;;;;;;4972295;28;19926;-68
2023/07/28 00:59:19;;;;;;;;;;;17.90;99.90;;;;;;4972142;28;19938;-69
2023/07/28 01:01:46;;;;;;;;;;;17.90;99.90;;;;;;4972274;28;20316;-67
2023/07/28 01:04:16;;;;;;;;;;;17.80;99.90;;;;;;4981763;28;19925;-67
2023/07/28 01:06:47;;;;;;;;;;;17.70;99.90;;;;;;4985832;28;19922;-68
2023/07/28 01:09:18;;;;;;;;;;;17.70;99.90;;;;;;4972171;28;20480;-68
2023/07/28 01:11:55;;;;;;;;;;;17.70;99.90;;;;;;4972165;28;19929;-68
2023/07/28 01:14:23;;;;;;;;;;;17.70;99.90;;;;;;4972209;28;20021;-68
2023/07/28 01:16:51;;;;;;;;;;;17.70;99.90;;;;;;4971912;28;20389;-67
2023/07/28 01:19:21;;;;;;;;;;;17.70;99.90;;;;;;4971927;28;19933;-67
2023/07/28 01:21:54;;;;;;;;;;;17.80;99.90;;;;;;4971978;28;19926;-64
2023/07/28 01:24:27;;;;;;;;;;;17.80;99.90;;;;;;4972086;28;19930;-66
2023/07/28 01:26:57;;;;;;;;;;;17.80;99.90;;;;;;4972534;28;19922;-67
2023/07/28 01:29:25;;;;;;;;;;;17.90;99.90;;;;;;4971935;28;19993;-68
2023/07/28 01:31:53;;;;;;;;;;;17.90;99.90;;;;;;4971515;28;19929;-65
2023/07/28 01:34:20;;;;;;;;;;;17.90;99.90;;;;;;4981772;28;20365;-68
2023/07/28 01:36:47;;;;;;;;;;;17.80;99.90;;;;;;4985342;28;20293;-65
2023/07/28 01:39:15;;;;;;;;;;;17.80;99.90;;;;;;4971988;28;19922;-67
2023/07/28 01:41:44;;;;;;;;;;;17.80;99.90;;;;;;4971992;28;19922;-66
2023/07/28 01:44:13;;;;;;;;;;;17.80;99.90;;;;;;4971551;28;20282;-68
2023/07/28 01:46:41;;;;;;;;;;;17.90;99.90;;;;;;4971853;28;19926;-68
2023/07/28 01:49:08;;;;;;;;;;;17.80;99.90;;;;;;4972855;28;20385;-68
2023/07/28 01:51:40;;;;;;;;;;;17.80;99.90;;;;;;4975260;28;19926;-68
2023/07/28 01:54:07;;;;;;;;;;;17.90;99.90;;;;;;4975065;28;19972;-69
2023/07/28 01:56:35;;;;;;;;;;;17.90;99.90;;;;;;4975243;28;19973;-67
2023/07/28 01:59:03;;;;;;;;;;;17.80;99.90;;;;;;4975293;28;19949;-68
2023/07/28 02:01:35;;;;;;;;;;;17.70;99.90;;;;;;4967383;28;19929;-68
2023/07/28 02:04:03;;;;;;;;;;;17.70;99.90;;;;;;4982365;28;19965;-68
2023/07/28 02:06:32;;;;;;;;;;;17.70;99.90;;;;;;4987052;28;19961;-68
2023/07/28 02:09:00;;;;;;;;;;;17.70;99.90;;;;;;4974664;28;20343;-68
2023/07/28 02:11:28;;;;;;;;;;;17.60;99.90;;;;;;4974529;28;19925;-67
2023/07/28 02:13:58;;;;;;;;;;;17.70;99.90;;;;;;4974996;28;19925;-66
2023/07/28 02:16:27;;;;;;;;;;;17.70;99.90;;;;;;4974571;28;19929;-66
2023/07/28 02:18:56;;;;;;;;;;;17.70;99.90;;;;;;4974649;28;19922;-68
2023/07/28 02:21:24;;;;;;;;;;;17.70;99.90;;;;;;4974556;28;19922;-67
2023/07/28 02:23:52;;;;;;;;;;;17.70;99.90;;;;;;4974695;28;19943;-67
2023/07/28 02:26:19;;;;;;;;;;;17.70;99.90;;;;;;4974320;28;19926;-66
2023/07/28 02:28:47;;;;;;;;;;;17.70;99.90;;;;;;4974421;28;20448;-67
2023/07/28 02:31:15;;;;;;;;;;;17.70;99.90;;;;;;4974408;28;19929;-67
2023/07/28 02:33:42;;;;;;;;;;;17.60;99.90;;;;;;4978908;28;19921;-66
2023/07/28 02:36:12;;;;;;;;;;;17.70;99.90;;;;;;4993218;28;20344;-66
2023/07/28 02:38:39;;;;;;;;;;;17.60;99.90;;;;;;4974605;28;19933;-67
2023/07/28 02:41:07;;;;;;;;;;;17.70;99.90;;;;;;4974261;28;19977;-67
2023/07/28 02:43:35;;;;;;;;;;;17.60;99.90;;;;;;4974087;28;19930;-67
2023/07/28 02:46:02;;;;;;;;;;;17.60;99.90;;;;;;4974216;28;19922;-68
2023/07/28 02:48:30;;;;;;;;;;;17.60;99.90;;;;;;4973881;28;19922;-69
2023/07/28 02:50:58;;;;;;;;;;;17.60;99.90;;;;;;4973831;28;19992;-68
2023/07/28 02:53:27;;;;;;;;;;;17.50;99.90;;;;;;4973792;28;20385;-67
2023/07/28 02:55:55;;;;;;;;;;;17.50;99.90;;;;;;4973553;28;19922;-69
2023/07/28 02:58:24;;;;;;;;;;;17.60;99.90;;;;;;4973403;28;20304;-68
2023/07/28 03:00:52;;;;;;;;;;;17.60;99.90;;;;;;4973347;28;19928;-67
2023/07/28 03:03:20;;;;;;;;;;;17.50;99.90;;;;;;4974659;28;19929;-67
2023/07/28 03:05:52;;;;;;;;;;;17.60;99.90;;;;;;4979222;28;19930;-68
2023/07/28 03:08:20;;;;;;;;;;;17.60;99.90;;;;;;4969366;28;20449;-68
2023/07/28 03:10:49;;;;;;;;;;;17.60;99.90;;;;;;4973769;28;19983;-70
2023/07/28 03:13:16;;;;;;;;;;;17.60;99.90;;;;;;4974877;28;19922;-68
2023/07/28 03:15:44;;;;;;;;;;;17.60;99.90;;;;;;4976459;28;19922;-67
2023/07/28 03:18:12;;;;;;;;;;;17.60;99.90;;;;;;4973571;28;19922;-68
2023/07/28 03:20:40;;;;;;;;;;;17.60;99.90;;;;;;4973731;28;20264;-67
2023/07/28 03:23:07;;;;;;;;;;;17.60;99.90;;;;;;4973683;28;20381;-67
2023/07/28 03:25:35;;;;;;;;;;;17.60;99.90;;;;;;4974796;28;20373;-67
2023/07/28 03:28:04;;;;;;;;;;;17.60;99.90;;;;;;4978091;28;19926;-68
2023/07/28 03:30:32;;;;;;;;;;;17.70;99.90;;;;;;4973098;28;19926;-67
2023/07/28 03:33:00;;;;;;;;;;;17.70;99.90;;;;;;4973172;28;20286;-67
2023/07/28 03:35:28;;;;;;;;;;;17.70;99.90;;;;;;4981007;28;19922;-66
2023/07/28 03:37:55;;;;;;;;;;;17.70;99.90;;;;;;4972923;28;19926;-67
2023/07/28 03:40:23;;;;;;;;;;;17.70;99.90;;;;;;4973145;28;19972;-68
2023/07/28 03:42:51;;;;;;;;;;;17.70;99.90;;;;;;4973224;28;19922;-67
2023/07/28 03:45:20;;;;;;;;;;;17.70;99.90;;;;;;4972907;28;19929;-67
2023/07/28 03:47:48;;;;;;;;;;;17.70;99.90;;;;;;4973036;28;20439;-68
2023/07/28 03:50:16;;;;;;;;;;;17.70;99.90;;;;;;4973120;28;19928;-67
2023/07/28 03:52:44;;;;;;;;;;;17.70;99.90;;;;;;4972837;28;20356;-69
2023/07/28 03:55:12;;;;;;;0.60;0.40;;;17.60;99.90;;;;;;4972536;28;20297;-69
2023/07/28 03:57:39;;;;;;;0.77;0.60;;;17.60;99.90;;;;;;4972006;28;20669;-69
2023/07/28 04:00:08;;;;;;;;;;;17.60;99.90;;;;;;4972533;28;20202;-68
2023/07/28 04:02:37;;;;;;;;;;;17.60;99.90;;;;;;4977542;28;19922;-69
2023/07/28 04:05:05;;;;;;;;;;;17.70;99.90;;;;;;4983765;28;19957;-69
2023/07/28 04:07:33;;;;;;;;;;;17.60;99.90;;;;;;4980570;28;20456;-69
2023/07/28 04:10:01;;;;;;;;;;;17.60;99.90;;;;;;4973091;28;19922;-71
2023/07/28 04:12:28;;;;;;;;;;;17.60;99.90;;;;;;4971796;28;19930;-69
2023/07/28 04:14:56;;;;;;;;;;;17.50;99.90;;;;;;4972939;28;19945;-69
2023/07/28 04:17:24;;;;;;;;;;;17.60;99.90;;;;;;4972531;28;19966;-69
2023/07/28 04:19:53;;;;;;;;;;;17.50;99.90;;;;;;4979863;28;20340;-67
2023/07/28 04:22:21;;;;;;;;;;;17.50;99.90;;;;;;4972827;28;19922;-68
2023/07/28 04:24:49;;;;;;;;;;;17.50;99.90;;;;;;4972706;28;19933;-68
2023/07/28 04:27:17;;;;;;;;;;;17.60;99.90;;;;;;4972625;28;20301;-68
2023/07/28 04:29:45;;;;;;;;;;;17.60;99.90;;;;;;4972670;28;20046;-68
2023/07/28 04:32:12;;;;;;;;;;;17.60;99.90;;;;;;4972578;28;19926;-69
2023/07/28 04:34:40;;;;;;;;;;;17.60;99.90;;;;;;4980468;28;19929;-68
2023/07/28 04:37:09;;;;;;;;;;;17.60;99.90;;;;;;4980381;28;20194;-68
2023/07/28 04:39:37;;;;;;;;;;;17.60;99.90;;;;;;4972049;28;19977;-69
2023/07/28 04:42:05;;;;;;;;;;;17.60;99.90;;;;;;4972726;28;19926;-69
2023/07/28 04:44:33;;;;;;;;;;;17.60;99.90;;;;;;4972754;28;19950;-68
2023/07/28 04:47:00;;;;;;;;;;;17.50;99.90;;;;;;4972412;28;19921;-68
2023/07/28 04:49:28;;;;;;;;;;;17.50;99.90;;;;;;4971995;28;19922;-68
2023/07/28 04:51:56;;;;;;;;;;;17.40;99.90;;;;;;5005949;22;20384;-75
2023/07/28 04:54:25;;;;;;;;;;;17.40;99.90;;;;;;5011169;28;19929;-75
2023/07/28 04:56:54;;;;;;;;;;;17.50;99.90;;;;;;5006027;28;19921;-75
2023/07/28 04:59:22;;;;;;;;;;;17.50;99.90;;;;;;5011311;28;19929;-75
2023/07/28 05:01:49;;;;;;;;;;;17.60;99.90;;;;;;5003522;28;20380;-75
2023/07/28 05:04:17;;;;;;;;;;;17.50;99.90;;;;;;5015799;28;19925;-74
2023/07/28 05:06:45;;;;;;;;;;;17.50;99.90;;;;;;5018934;28;19921;-75
2023/07/28 05:09:13;;;;;;;;;;;17.60;99.90;;;;;;5011113;28;19933;-75
2023/07/28 05:11:42;;;;;;;;;;;17.70;99.90;;;;;;5013148;28;19925;-75
2023/07/28 05:14:10;;;;;;;;;;;17.70;99.90;;;;;;5009947;28;19925;-74
2023/07/28 05:16:37;;;;;;;;;;;17.80;99.90;;;;;;5015270;28;19925;-74
2023/07/28 05:19:07;;;;;;;;;;;17.80;99.90;;;;;;5014436;28;19924;-74
2023/07/28 05:21:34;;;;;;;;;;;17.90;99.90;;;;;;5016648;28;20079;-73
2023/07/28 05:24:03;;;;;;;;;;;17.90;99.90;;;;;;5016516;28;19968;-74
2023/07/28 05:26:31;;;;;;;;;;;17.90;99.90;;;;;;5020145;28;19929;-75
2023/07/28 05:29:00;;;;;;;;;;;17.90;99.90;;;;;;5020501;28;19924;-74
2023/07/28 05:31:27;;;;;;;;;;;18.00;99.90;;;;;;5015739;28;20490;-73
2023/07/28 05:33:55;;;;;;;;;;;18.00;99.90;;;;;;5016688;28;19929;-74
2023/07/28 05:36:24;;;;;;;;;;;18.00;99.90;;;;;;5020485;28;19942;-75
2023/07/28 05:38:53;;;;;;;;;;;18.10;99.90;;;;;;5020208;28;19925;-74
2023/07/28 05:41:21;;;;;;;;;;;18.10;99.90;;;;;;5020771;28;19935;-74
2023/07/28 05:43:49;;;;;;;;;;;18.10;99.90;;;;;;5015954;28;20403;-75
2023/07/28 05:46:20;;;;;;;;;;;18.10;99.90;;;;;;5018595;28;19936;-74
2023/07/28 05:48:48;;;;;;;;;;;18.10;99.90;;;;;;5018358;28;19937;-75
2023/07/28 05:51:15;;;;;;;;;;;18.10;99.90;;;;;;5019802;28;19971;-75
2023/07/28 05:53:43;;;;;;;;;;;18.10;99.90;;;;;;5015848;28;19929;-74
2023/07/28 05:56:11;;;;;;;;;;;18.10;99.90;;;;;;5018542;28;19933;-75
2023/07/28 05:58:39;;;;;;;;;;;18.10;99.90;;;;;;5019635;28;19924;-73
2023/07/28 06:01:06;;;;;;;;;;;18.10;99.90;;;;;;5016158;28;19924;-73
2023/07/28 06:03:36;;;;;;;;;;;18.20;99.90;;;;;;5018955;28;19956;-72
2023/07/28 06:06:04;;;;;;;;;;;18.20;99.90;;;;;;5017407;28;19949;-74
2023/07/28 06:08:31;;;;;;;;;;;18.20;99.90;;;;;;5019351;28;19921;-73
2023/07/28 06:10:59;;;;;;;;;;;18.30;99.90;;;;;;5019927;28;19928;-72
2023/07/28 06:13:27;;;;;;;;;;;18.30;99.90;;;;;;5019903;28;19929;-70
2023/07/28 06:15:56;;;;;;;;;;;18.30;99.90;;;;;;5013251;28;19983;-69
2023/07/28 06:18:23;;;;;;;;;;;18.30;99.90;;;;;;5017936;28;19936;-72
2023/07/28 06:20:53;;;;;;;;;;;18.40;99.90;;;;;;5018434;28;19929;-71
2023/07/28 06:23:20;;;;;;;;;;;18.40;99.90;;;;;;5019380;28;19934;-71
2023/07/28 06:25:48;;;;;;;;;;;18.50;99.90;;;;;;5031855;28;19927;-70
2023/07/28 06:28:16;;;;;;;;;;;18.50;99.90;;;;;;5018183;28;20396;-72
2023/07/28 06:30:45;;;;;;;;;;;18.50;99.90;;;;;;5011524;28;19927;-71
2023/07/28 06:33:12;;;;;;;;;;;18.60;99.90;;;;;;5017204;28;19928;-71
2023/07/28 06:35:40;;;;;;;;;;;18.70;99.90;;;;;;5010538;28;19927;-72
2023/07/28 06:38:09;;;;;;;;;;;18.80;99.90;;;;;;5013374;28;19921;-71
2023/07/28 06:40:37;;;;;;;;;;;18.90;99.90;;;;;;5012082;28;19967;-72
2023/07/28 06:43:07;;;;;;;;;;;18.80;99.90;;;;;;5013445;28;19928;-72
2023/07/28 06:45:34;;;;;;;;;;;18.90;99.90;;;;;;5013157;28;19921;-72
2023/07/28 06:48:02;;;;;;;;;;;18.90;99.90;;;;;;5012017;28;20380;-72
2023/07/28 06:50:31;;;;;;;;;;;19.00;99.90;;;;;;5013205;28;19965;-71
2023/07/28 06:52:59;;;;;;;;;;;19.00;99.90;;;;;;5012875;28;19928;-72
2023/07/28 06:55:28;;;;;;;;;;;19.10;99.90;;;;;;5013250;28;19925;-72
2023/07/28 06:57:56;;;;;;;;;;;19.10;99.90;;;;;;5012781;28;20372;-72
2023/07/28 07:00:24;;;;;;;;;;;19.10;99.90;;;;;;5012975;28;20003;-72
2023/07/28 07:02:52;;;;;;;;;;;19.20;99.90;;;;;;5012894;28;19968;-72
2023/07/28 07:05:20;;;;;;;;;;;19.20;99.90;;;;;;5027390;28;19921;-72
2023/07/28 07:07:48;;;;;;;;;;;19.30;99.90;;;;;;5032479;28;19921;-71
2023/07/28 07:10:15;;;;;;;;;;;19.30;99.90;;;;;;5032874;28;19966;-71
2023/07/28 07:12:45;;;;;;;;;;;19.30;99.90;;;;;;5032603;28;19979;-71
2023/07/28 07:15:12;;;;;;;;;;;19.30;99.90;;;;;;5032578;28;19921;-71
2023/07/28 07:17:40;;;;;;;;;;;19.30;99.90;;;;;;5032460;28;19928;-71
2023/07/28 07:20:10;;;;;;;;;;;19.30;99.90;;;;;;5032594;28;19925;-71
2023/07/28 07:22:38;;;;;;;;;;;19.40;99.90;;;;;;5032394;28;19983;-71
2023/07/28 07:25:07;;;;;;;;;;;19.40;99.90;;;;;;5032705;28;20395;-71
2023/07/28 07:27:34;;;;;;;;;;;19.30;99.90;;;;;;5032310;28;20299;-70
2023/07/28 07:30:04;;;;;;;;;;;19.30;99.90;;;;;;5032345;28;20294;-70
2023/07/28 07:32:33;;;;;;;;;;;19.40;99.90;;;;;;5032165;28;19928;-70
2023/07/28 07:35:01;;;;;;;;;;;19.30;99.90;;;;;;5028775;28;19925;-71
2023/07/28 07:37:31;;;;;;;;;;;19.30;99.90;;;;;;5032136;28;19921;-70
2023/07/28 07:40:00;;;;;;;;;;;19.30;99.90;;;;;;5031728;28;20010;-70
2023/07/28 07:42:29;;;;;;;;;;;19.40;99.90;;;;;;5032145;28;19929;-71
2023/07/28 07:44:57;;;;;;;;;;;19.30;99.90;;;;;;5032092;28;20350;-70
2023/07/28 07:47:26;;;;;;;;;;;19.30;99.90;;;;;;5031910;28;19929;-70
2023/07/28 07:49:54;;;;;;;;;;;19.30;99.90;;;;;;5031866;28;20019;-71
2023/07/28 07:52:21;;;;;;;;;;;19.40;99.90;;;;;;5031818;28;19921;-70
2023/07/28 07:54:49;;;;;;;;;;;19.50;99.90;;;;;;5031811;28;19921;-70
2023/07/28 07:57:18;;;;;;;;;;;19.60;99.90;;;;;;5031843;28;19932;-70
2023/07/28 07:59:46;;;;;;;;;;;19.60;99.90;;;;;;5031621;28;19924;-71
2023/07/28 08:02:14;;;;;;;;;;;19.60;99.90;;;;;;5031400;28;19921;-70
2023/07/28 08:04:43;;;;;;;;;;;19.70;99.90;;;;;;5027957;28;20402;-72
2023/07/28 08:07:11;;;;;;;;;;;19.60;99.90;;;;;;5031542;28;19921;-71
2023/07/28 08:09:39;;;;;;;;;;;19.60;99.90;;;;;;5031990;28;19932;-71
2023/07/28 08:12:07;;;;;;;;;;;19.60;99.90;;;;;;5015557;28;19927;-71
2023/07/28 08:14:36;;;;;;;;;;;19.70;99.90;;;;;;5031761;28;19925;-71
2023/07/28 08:17:04;;;;;;;;;;;19.80;99.90;;;;;;5031333;28;19921;-71
2023/07/28 08:19:32;;;;;;;;;;;19.80;99.90;;;;;;5031878;28;20304;-71
2023/07/28 08:22:03;;;;;;;;;;;20.00;99.90;;;;;;5031238;28;19928;-71
2023/07/28 08:24:30;;;;;;;;;;;20.20;99.90;;;;;;5032006;28;20295;-72
2023/07/28 08:26:58;;;;;;;;;;;20.30;99.90;;;;;;5031252;28;20003;-72
2023/07/28 08:29:26;;;;;;;;;;;20.40;99.90;;;;;;5031455;28;19925;-71
2023/07/28 08:31:54;;;;;;;;;;;20.40;99.90;;;;;;5031142;28;19928;-71
2023/07/28 08:34:22;;;;;;;;;;;20.40;99.90;;;;;;5027346;28;19929;-70
2023/07/28 08:36:50;;;;;;;;;;;20.60;99.90;;;;;;5031370;28;19921;-70
2023/07/28 08:39:19;;;;;;;;;;;20.60;99.90;;;;;;5031560;28;19929;-70
2023/07/28 08:41:47;;;;;;;;;;;20.70;99.90;;;;;;5030986;28;19921;-70
2023/07/28 08:44:16;;;;;;;;;;;20.80;99.90;;;;;;5031466;28;19921;-70
2023/07/28 08:46:43;;;;;;;;;;;20.90;99.90;;;;;;5031164;28;19952;-70
2023/07/28 08:49:11;;;;;;;;;;;20.80;99.90;;;;;;5015819;28;19927;-70
2023/07/28 08:51:41;;;;;;;;;;;20.90;99.90;;;;;;5030907;28;19932;-70
2023/07/28 08:54:09;;;;;;;;;;;21.00;99.90;;;;;;5015081;28;20347;-71
2023/07/28 08:56:39;;;;;;;;;;;21.00;99.90;;;;;;5031100;28;19925;-70
2023/07/28 08:59:06;;;;;;;;;;;21.10;99.90;;;;;;5034187;28;19928;-71
2023/07/28 09:01:39;;;;;;;;;;;21.10;99.90;;;;;;5035024;28;20381;-71
2023/07/28 09:04:10;;;;;;;;;;;21.10;99.90;;;;;;5030904;28;19928;-70
2023/07/28 09:06:38;;;;;;;;;;;21.20;99.90;;;;;;5034505;28;19921;-71
2023/07/28 09:09:08;;;;;;;;;;;21.30;99.90;;;;;;5035061;28;20374;-71
2023/07/28 09:11:44;;;;;;;;;;;21.20;99.90;;;;;;5034965;28;19920;-71
2023/07/28 09:14:12;;;;;;;;;;;21.30;99.90;;;;;;5026987;28;19948;-71
2023/07/28 09:16:40;;;;;;;;;;;21.60;99.90;;;;;;5034893;28;20012;-71
2023/07/28 09:19:08;;;;;;;;;;;21.80;99.90;;;;;;5035032;28;19932;-72
2023/07/28 09:21:36;;;;;;;;;;;21.90;99.90;;;;;;5035001;28;20367;-71
2023/07/28 09:24:05;;;;;;;;;;;22.00;99.90;;;;;;5034761;28;19921;-71
2023/07/28 09:26:42;;;;;;;;;;;22.00;99.90;;;;;;5034695;28;20023;-72
2023/07/28 09:29:14;;;;;;;;;;;22.00;99.90;;;;;;5034704;28;19944;-71
2023/07/28 09:31:42;;;;;;;;;;;22.10;99.90;;;;;;5034681;28;19971;-72
2023/07/28 09:34:10;;;;;;;;;;;22.20;99.90;;;;;;5029668;28;19972;-72
2023/07/28 09:36:38;;;;;;;;;;;22.20;99.90;;;;;;5034298;28;20105;-72
2023/07/28 09:39:08;;;;;;;;;;;22.30;99.90;;;;;;5034537;28;19920;-71
2023/07/28 09:41:37;;;;;;;;;;;22.40;99.90;;;;;;5034554;28;19928;-71
2023/07/28 09:44:06;;;;;;;;;;;22.50;99.90;;;;;;5034371;28;19928;-70
2023/07/28 09:46:35;;;;;;;;;;;22.60;99.90;;;;;;5034043;28;19921;-72
2023/07/28 09:49:05;;;;;;;;;;;22.80;99.90;;;;;;5034126;28;20399;-72
2023/07/28 09:51:34;;;;;;;;;;;22.90;99.90;;;;;;5034144;28;19925;-71
2023/07/28 09:54:05;;;;;;;;;;;23.00;99.90;;;;;;5034216;28;19921;-70
2023/07/28 09:56:33;;;;;;;;;;;23.10;99.90;;;;;;5033835;28;20285;-71
2023/07/28 09:59:03;;;;;;;;;;;23.30;99.90;;;;;;5034076;28;20334;-71
2023/07/28 10:01:33;;;;;;;;;;;23.50;99.90;;;;;;5034121;28;20379;-70
2023/07/28 10:04:01;;;;;;;;;;;23.70;99.90;;;;;;5028973;28;19995;-71
2023/07/28 10:06:31;;;;;;;;;;;23.70;99.90;;;;;;5033761;28;20355;-71
2023/07/28 10:08:59;;;;;;;;;;;23.80;99.90;;;;;;5033159;28;20268;-72
2023/07/28 10:11:27;;;;;;;;;;;23.80;99.90;;;;;;5033651;28;19944;-71
2023/07/28 10:13:55;;;;;;;;;;;23.70;99.90;;;;;;5033894;28;19928;-71
2023/07/28 10:16:30;;;;;;;;;;;23.80;99.90;;;;;;5033424;28;19921;-71
2023/07/28 10:18:59;;;;;;;;;;;23.90;99.90;;;;;;5033914;28;19921;-71
2023/07/28 10:21:28;;;;;;;;;;;24.00;99.90;;;;;;5033909;28;19975;-71
2023/07/28 10:23:58;;;;;;;;;;;24.30;99.90;;;;;;5033719;28;19921;-71
2023/07/28 10:26:32;;;;;;;;;;;24.60;99.90;;;;;;5033445;28;20012;-71
2023/07/28 10:29:08;;;;;;;;;;;24.80;99.90;;;;;;5033593;28;19929;-71
2023/07/28 10:31:37;;;;;;;;;;;25.00;99.90;;;;;;5033770;28;19921;-71
2023/07/28 10:34:06;;;;;;;;;;;25.10;99.90;;;;;;5028529;28;19921;-71
2023/07/28 10:36:35;;;;;;;;;;;25.10;99.90;;;;;;5032952;28;19922;-70
2023/07/28 10:39:14;;;;;;;;;;;25.10;99.90;;;;;;5033275;28;19928;-71
2023/07/28 10:42:00;;;;;;;;;;;25.20;99.90;;;;;;5033469;28;19929;-71
2023/07/28 10:44:28;;;;;;;;;;;25.30;99.90;;;;;;5019533;28;19971;-71
2023/07/28 10:46:56;;;;;;;;;;;25.30;99.90;;;;;;5032829;28;19921;-71
2023/07/28 10:49:26;;;;;;;;;;;25.10;99.90;;;;;;5033449;28;20177;-70
2023/07/28 10:51:54;;;;;;;;;;;25.00;99.90;;;;;;5033704;28;19932;-71
2023/07/28 10:54:22;;;;;;;;;;;24.90;99.90;;;;;;5033275;28;19924;-72
2023/07/28 10:56:50;;;;;;;;;;;24.80;99.90;;;;;;5032886;28;20300;-69
2023/07/28 10:59:18;;;;;;;;;;;24.50;99.90;;;;;;5033039;28;19925;-70
2023/07/28 11:01:46;;;;;;;;;;;24.10;99.90;;;;;;5033211;28;19979;-70
2023/07/28 11:04:15;;;;;;;;;;;24.00;99.90;;;;;;5026944;28;20024;-71
2023/07/28 11:06:46;;;;;;;;;;;23.80;99.90;;;;;;5032526;28;20372;-73
2023/07/28 11:09:17;;;;;;;;;;;23.60;99.90;;;;;;5033116;28;19928;-70
2023/07/28 11:11:45;;;;;;;;;;;23.50;99.90;;;;;;5032937;28;19921;-71
2023/07/28 11:14:15;;;;;;;;;;;23.50;99.90;;;;;;5032826;28;20015;-70
2023/07/28 11:16:44;;;;;;;;;;;23.50;99.90;;;;;;5032396;28;19927;-70
2023/07/28 11:19:14;;;;;;;;;;;23.60;99.90;;;;;;5032506;28;19921;-71
2023/07/28 11:21:42;;;;;;;;;;;23.60;99.90;;;;;;5032313;28;19925;-73
2023/07/28 11:24:12;;;;;;;;;;;23.60;99.90;;;;;;5032515;28;19974;-71
2023/07/28 11:26:40;;;;;;;;;;;23.60;99.90;;;;;;5032286;28;19929;-72
2023/07/28 11:29:08;;;;;;;;;;;23.70;99.90;;;;;;5032908;28;19983;-70
2023/07/28 11:31:36;;;;;;;;;;;23.70;99.90;;;;;;5032509;28;19925;-74
2023/07/28 11:34:13;;;;;;;;;;;23.90;99.90;;;;;;5026027;28;20343;-70
2023/07/28 11:36:42;;;;;;;;;;;24.10;99.90;;;;;;5032078;28;20354;-73
2023/07/28 11:39:10;;;;;;;;;;;24.30;99.90;;;;;;5032254;28;19924;-71
2023/07/28 11:41:40;;;;;;;;;;;24.50;99.90;;;;;;5032292;28;19944;-71
2023/07/28 11:44:08;;;;;;;;;;;24.60;99.90;;;;;;5032213;28;20303;-71
2023/07/28 11:46:37;;;;;;;;;;;24.70;99.90;;;;;;5032140;28;19921;-71
2023/07/28 11:49:09;;;;;;;;;;;24.60;99.90;;;;;;5032053;28;19920;-74
2023/07/28 11:51:39;;;;;;;;;;;24.30;99.90;;;;;;5031858;28;19925;-71
2023/07/28 11:54:07;;;;;;;;;;;24.00;99.90;;;;;;5031923;28;19928;-71
2023/07/28 11:56:35;;;;;;;;;;;23.80;99.90;;;;;;5031902;28;19925;-71
2023/07/28 11:59:04;;;;;;;;;;;24.00;99.90;;;;;;5031739;28;19921;-71
2023/07/28 12:01:32;;;;;;;;;;;24.10;99.90;;;;;;5031956;28;19925;-71
2023/07/28 12:04:20;;;;;;;;;;;24.20;99.90;;;;;;5025418;28;19922;-73
2023/07/28 12:07:07;;;;;;;;;;;24.30;99.90;;;;;;5032078;28;19929;-70
2023/07/28 12:09:50;;;;;;;;;;;24.40;99.90;;;;;;5017704;28;20398;-69
2023/07/28 12:12:30;;;;;;;;;;;24.20;99.90;;;;;;5031869;28;20414;-70
2023/07/28 12:15:04;;;;;;;;;;;24.10;99.90;;;;;;5031724;28;19987;-69
2023/07/28 12:17:36;;;;;;;;;;;23.90;99.90;;;;;;5016937;28;19921;-70
2023/07/28 12:20:10;;;;;;;;;;;23.60;99.90;;;;;;5031588;28;19921;-70
2023/07/28 12:22:39;;;;;;;;;;;23.60;99.90;;;;;;5031643;28;20388;-69
2023/07/28 12:25:07;;;;;;;;;;;23.70;99.90;;;;;;5031483;28;19921;-69
2023/07/28 12:27:35;;;;;;;;;;;23.60;99.90;;;;;;5031179;28;19982;-69
2023/07/28 12:30:07;;;;;;;;;;;23.70;99.90;;;;;;5031477;28;19925;-69
2023/07/28 12:32:43;;;;;;;;;;;24.20;99.90;;;;;;5018110;28;20406;-70
2023/07/28 12:35:31;;;;;;;;;;;24.60;99.90;;;;;;5023937;28;20403;-76
2023/07/28 12:38:04;;;;;;;;;;;24.60;99.90;;;;;;5011416;28;20456;-73
2023/07/28 12:40:52;;;;;;;;;;;24.60;99.90;;;;;;5011751;28;19957;-70
2023/07/28 12:43:24;;;;;;;;;;;24.50;99.90;;;;;;5011316;28;19925;-70
2023/07/28 12:45:56;;;;;;;;;;;24.50;99.90;;;;;;5011470;28;19925;-71
2023/07/28 12:48:26;;;;;;;;;;;24.40;99.90;;;;;;5011387;28;20420;-73
2023/07/28 12:50:54;;;;;;;;;;;24.40;99.90;;;;;;5011926;28;19921;-70
2023/07/28 12:53:25;;;;;;;;;;;24.20;99.90;;;;;;5010960;28;19945;-71
2023/07/28 12:55:53;;;;;;;;;;;24.00;99.90;;;;;;5011198;28;19937;-73
2023/07/28 12:58:24;;;;;;;;;;;23.90;99.90;;;;;;5011168;28;20353;-69
2023/07/28 13:00:57;;;;;;;;;;;23.90;99.90;;;;;;5011450;28;19925;-71
2023/07/28 13:03:28;;;;;;;;;;;23.90;99.90;;;;;;5011416;28;19980;-70
2023/07/28 13:05:56;;;;;;;;;;;24.00;99.90;;;;;;5014319;28;19921;-71
2023/07/28 13:08:24;;;;;;;;;;;24.00;99.90;;;;;;5030938;28;19928;-73
2023/07/28 13:10:54;;;;;;;;;;;23.80;99.90;;;;;;5031165;28;19925;-72
2023/07/28 13:13:25;;;;;;;;;;;23.40;99.90;;;;;;5031048;28;20384;-72
2023/07/28 13:15:53;;;;;;;;;;;23.10;99.90;;;;;;5031087;28;20379;-73
2023/07/28 13:18:22;;;;;;;;;;;22.70;99.90;;;;;;5031825;28;19957;-73
2023/07/28 13:20:50;;;;;;;0.55;0.40;;;22.60;99.90;;;;;;5030687;28;20091;-73
2023/07/28 13:23:18;;;;;;;0.60;0.50;;;22.40;99.90;;;;;;5030292;28;20233;-74
2023/07/28 13:25:46;;;;;;;0.60;0.55;;;22.40;99.90;;;;;;5030627;28;20209;-73
2023/07/28 13:28:15;;;;;;;0.57;0.40;;;22.30;99.90;;;;;;5030250;28;20213;-73
2023/07/28 13:30:43;;;;;;;0.70;0.70;;;22.30;99.90;;;;;;5030618;28;20445;-73
2023/07/28 13:33:11;;;;;;;0.50;0.40;;;22.50;99.90;;;;;;5030300;28;20554;-73
2023/07/28 13:35:40;;;;;;;0.60;0.40;;;22.50;99.90;;;;;;5030319;28;20260;-73
2023/07/28 13:38:08;;;;;;;0.95;0.85;;;22.50;99.90;;;;;;5030073;28;20224;-73
2023/07/28 13:40:37;;;;;;;0.60;0.50;;;22.60;99.90;;;;;;5030140;28;20686;-73
2023/07/28 13:43:05;;;;;;;0.57;0.50;;;22.70;99.90;;;;;;5030412;28;20534;-73
2023/07/28 13:45:34;;;;;;;0.63;0.57;;;22.70;99.90;;;;;;5033595;28;20203;-73
2023/07/28 13:48:02;;;;;;;0.60;0.43;;;22.60;99.90;;;;;;5033573;28;20659;-73
2023/07/28 13:50:30;;;;;;;0.60;0.57;;;22.70;99.90;;;;;;5033803;28;20300;-73
2023/07/28 13:53:02;;;;;;;0.60;0.43;;;22.80;99.90;;;;;;5033655;28;20240;-73
2023/07/28 13:55:33;;;;;;;0.60;0.40;;;22.80;99.90;;;;;;5033596;28;20214;-73
2023/07/28 13:58:04;;;;;;;0.50;0.40;;;22.90;99.90;;;;;;5033345;28;20228;-72
2023/07/28 14:00:32;;;;;;;0.60;0.40;;;23.00;99.90;;;;;;5033393;28;20555;-72
2023/07/28 14:03:00;;;;;;;0.70;0.60;;;23.00;99.90;;;;;;5033628;28;20714;-71
2023/07/28 14:05:28;;;;;;;0.50;0.40;;;22.80;99.90;;;;;;5033414;28;20654;-72
2023/07/28 14:07:56;;;;;;;0.65;0.57;;;22.90;99.90;;;;;;5033164;28;20205;-71
2023/07/28 14:10:26;;;;;;;0.80;0.80;;;22.90;99.90;;;;;;5033375;28;20209;-72
2023/07/28 14:12:54;;;;;;;0.70;0.50;;;22.90;99.90;;;;;;5033369;28;20237;-73
2023/07/28 14:15:21;;;;;;;0.50;0.50;;;23.00;99.90;;;;;;5033245;28;20683;-72
2023/07/28 14:17:49;;;;;;;;;;;22.90;99.90;;;;;;5033305;28;20291;-72